SondeTracker

Meteorological Radiosondes Database

Operations

Sounding was ended - last measurement: 2022-12-06 13:23:26z

MAP
About Radiosonde

Number: ME1622E23 (106-2-13619)

Launch Site: Murcia (ES)

Type: M10

AUX: NO

Frequency: 403.402 MHz

Max Speed: 107 km/h at 9948 m

Average Speed: 52.06 km/h

Max Altitude: 25175 m

Average Ascent Speed: 4.65 m/s

Average Descent Speed: 8.10 m/s

Status: LOST

Status Changes
Launch Site Type AUX Frequency Status Finder Landing Point Description Changes made by
MHz LOST 0, 0 AUTO STATUS: Probably lost in the water [BOT]AUTO-STATUS - 2022-12-06 14:33:46z
APRS Statistics

Received Frames: 371

First Frame [UTC]: 2022-12-06 11:22:08z

Last Frame [UTC]: 2022-12-06 13:23:26z

Receivers: ASTRA1, AZOFA2-1, EA4EKH-11, EB5AQ-11

Flight Time: 02:01:18 h

Distance From First Measurement: 86.14 km

Nearest City: Torrevieja (ES) [45.14 km]

Nearest Hunter: CT5GKH [27.91 km]

Ground Altitude: -123 m

Distance from QTH: 0.00 km

APRS Data
Receiver Number Date/Time [UTC] φ λ Course [°] Speed [km/h] Altitude [m] Description
EB5AQ-11ME1622E232022-12-06 13:23:2637.8134-0.212861110485886Clb=-5.8m/s t=-18.5C h=35.1% p=-1.0hPa 403.402 MHz Type=M10 ser=106-2-13619 Radiosonde
EB5AQ-11ME1622E232022-12-06 13:22:4737.8148-0.21735104466071Clb=-6.0m/s t=-19.8C h=28.3% p=-1.0hPa 403.402 MHz Type=M10 ser=106-2-13619 Radiosonde
EB5AQ-11ME1622E232022-12-06 13:22:0437.816-0.22185111526261Clb=-6.3m/s t=-21.2C h=18.0% p=-1.0hPa 403.402 MHz Type=M10 ser=106-2-13619 Radiosonde
EB5AQ-11ME1622E232022-12-06 13:21:2737.8175-0.22654109526455Clb=-6.2m/s t=-22.7C h=15.9% p=-1.0hPa 403.402 MHz Type=M10 ser=106-2-13619 Radiosonde
EB5AQ-11ME1622E232022-12-06 13:20:4937.8189-0.231731106566652Clb=-6.4m/s t=-24.4C h=15.6% p=-1.0hPa 403.401 MHz Type=M10 ser=106-2-13619 Radiosonde
EB5AQ-11ME1622E232022-12-06 13:20:0237.8203-0.23756104616874Clb=-6.5m/s t=-26.3C h=15.3% p=-1.0hPa 403.402 MHz Type=M10 ser=106-2-13619 Radiosonde
EB5AQ-11ME1622E232022-12-06 13:19:2037.8215-0.24313104657057Clb=-6.6m/s t=-27.5C h=12.7% p=-1.0hPa 403.402 MHz Type=M10 ser=106-2-13619 Radiosonde
ASTRA1ME1622E232022-12-06 13:19:0837.8224-0.247119103677190ID=Igate AEMET sonda 106-2-13619 Clb=-6.6m/s t=-28.4C h=11.1% p=-1.0hPa 403.399 MHz Type=M10 Batt V=4.8V
EB5AQ-11ME1622E232022-12-06 13:18:4137.8229-0.249659102697271Clb=-6.8m/s t=-28.9C h=11.1% p=-1.0hPa 403.402 MHz Type=M10 ser=106-2-13619 Radiosonde
EB5AQ-11ME1622E232022-12-06 13:18:0137.824-0.256101102707474Clb=-7.0m/s t=-30.8C h=12.0% p=-1.0hPa 403.402 MHz Type=M10 ser=106-2-13619 Radiosonde
EB5AQ-11ME1622E232022-12-06 13:17:1537.8253-0.263081104727692Clb=-7.1m/s t=-32.7C h=10.1% p=-1.0hPa 403.401 MHz Type=M10 ser=106-2-13619 Radiosonde
ASTRA1ME1622E232022-12-06 13:17:0137.8262-0.266861108727815ID=Igate AEMET sonda 106-2-13619 Clb=-7.2m/s t=-33.7C h=9.9% p=-1.0hPa 403.399 MHz Type=M10 Batt V=4.8V
EB5AQ-11ME1622E232022-12-06 13:16:3337.827-0.269821106787910Clb=-7.2m/s t=-34.3C h=10.0% p=-1.0hPa 403.401 MHz Type=M10 ser=106-2-13619 Radiosonde
ASTRA1ME1622E232022-12-06 13:16:2237.8277-0.273159103788012ID=Igate AEMET sonda 106-2-13619 Clb=-7.0m/s t=-35.1C h=10.4% p=-1.0hPa 403.399 MHz Type=M10 Batt V=4.8V
EB5AQ-11ME1622E232022-12-06 13:15:5637.8284-0.277769100818141Clb=-7.2m/s t=-36.4C h=10.5% p=-1.0hPa 403.401 MHz Type=M10 ser=106-2-13619 Radiosonde
EB5AQ-11ME1622E232022-12-06 13:15:1137.8297-0.28624106968369Clb=-7.2m/s t=-38.0C h=7.7% p=-1.0hPa 403.401 MHz Type=M10 ser=106-2-13619 Radiosonde
ASTRA1ME1622E232022-12-06 13:14:5937.8302-0.288601103988428ID=Igate AEMET sonda 106-2-13619 Clb=-7.7m/s t=-38.3C h=7.0% p=-1.0hPa 403.399 MHz Type=M10 Batt V=4.8V
EB5AQ-11ME1622E232022-12-06 13:14:2837.8322-0.296071101078602Clb=-7.7m/s t=-39.2C h=6.6% p=-1.0hPa 403.401 MHz Type=M10 ser=106-2-13619 Radiosonde
ASTRA1ME1622E232022-12-06 13:14:1837.8339-0.3013611121048731ID=Igate AEMET sonda 106-2-13619 Clb=-7.7m/s t=-40.2C h=8.0% p=-1.0hPa 403.399 MHz Type=M10 Batt V=4.9V
EB5AQ-11ME1622E232022-12-06 13:13:4837.8352-0.30519112988828Clb=-7.5m/s t=-40.7C h=9.0% p=-1.0hPa 403.401 MHz Type=M10 ser=106-2-13619 Radiosonde
ASTRA1ME1622E232022-12-06 13:13:3737.836-0.30743115938889ID=Igate AEMET sonda 106-2-13619 Clb=-7.3m/s t=-40.9C h=9.3% p=-1.0hPa 403.399 MHz Type=M10 Batt V=4.9V
EB5AQ-11ME1622E232022-12-06 13:13:0237.8381-0.314461081009071Clb=-7.7m/s t=-42.2C h=9.3% p=-1.0hPa 403.401 MHz Type=M10 ser=106-2-13619 Radiosonde
ASTRA1ME1622E232022-12-06 13:12:5037.8388-0.317139109989141ID=Igate AEMET sonda 106-2-13619 Clb=-7.7m/s t=-42.8C h=9.2% p=-1.0hPa 403.399 MHz Type=M10 Batt V=4.9V
EB5AQ-11ME1622E232022-12-06 13:12:1737.8405-0.323321112949304Clb=-7.8m/s t=-44.3C h=8.1% p=-1.0hPa 403.401 MHz Type=M10 ser=106-2-13619 Radiosonde
ASTRA1ME1622E232022-12-06 13:12:0737.8412-0.325721111009367ID=Igate AEMET sonda 106-2-13619 Clb=-7.7m/s t=-44.8C h=7.2% p=-1.0hPa 403.398 MHz Type=M10 Batt V=4.9V
EB5AQ-11ME1622E232022-12-06 13:12:0037.8435-0.33241114989545Clb=-7.9m/s t=-46.3C h=6.9% p=-1.0hPa 403.401 MHz Type=M10 ser=106-2-13619 Radiosonde
ASTRA1ME1622E232022-12-06 13:11:5837.8445-0.334971116989616ID=Igate AEMET sonda 106-2-13619 Clb=-8.1m/s t=-46.7C h=6.9% p=-1.0hPa 403.398 MHz Type=M10 Batt V=4.9V
EB5AQ-11ME1622E232022-12-06 13:11:5337.8469-0.3414891131079797Clb=-8.5m/s t=-47.8C h=6.9% p=-1.0hPa 403.401 MHz Type=M10 ser=106-2-13619 Radiosonde
ASTRA1ME1622E232022-12-06 13:11:5137.8488-0.3470291141079948ID=Igate AEMET sonda 106-2-13619 Clb=-8.5m/s t=-48.8C h=7.4% p=-1.0hPa 403.398 MHz Type=M10 Batt V=4.9V
EB5AQ-11ME1622E232022-12-06 13:11:4637.8502-0.3510411610610057Clb=-8.1m/s t=-49.6C h=7.9% p=-1.0hPa 403.401 MHz Type=M10 ser=106-2-13619 Radiosonde
EB5AQ-11ME1622E232022-12-06 13:11:3937.8537-0.359241198910314Clb=-8.3m/s t=-51.2C h=8.8% p=-1.0hPa 403.401 MHz Type=M10 ser=106-2-13619 Radiosonde
EB5AQ-11ME1622E232022-12-06 13:11:3737.8568-0.366091217010565Clb=-7.8m/s t=-52.8C h=8.1% p=-1.0hPa 403.401 MHz Type=M10 ser=106-2-13619 Radiosonde
EB5AQ-11ME1622E232022-12-06 13:11:2737.8599-0.3719191226710819Clb=-8.2m/s t=-53.4C h=6.0% p=-1.0hPa 403.401 MHz Type=M10 ser=106-2-13619 Radiosonde
ASTRA1ME1622E232022-12-06 13:11:2037.8607-0.373591206910894ID=Igate AEMET sonda 106-2-13619 Clb=-8.3m/s t=-53.9C h=5.6% p=-1.0hPa 403.398 MHz Type=M10 Batt V=4.9V
EB5AQ-11ME1622E232022-12-06 13:10:5437.8625-0.377651135911078Clb=-8.6m/s t=-55.1C h=4.5% p=-1.0hPa 403.401 MHz Type=M10 ser=106-2-13619 Radiosonde
ASTRA1ME1622E232022-12-06 13:10:4037.863-0.379431106111161ID=Igate AEMET sonda 106-2-13619 Clb=-8.3m/s t=-55.1C h=3.5% p=-1.0hPa 403.398 MHz Type=M10 Batt V=4.9V
EB5AQ-11ME1622E232022-12-06 13:10:0537.8637-0.383451946111339Clb=-8.4m/s t=-54.4C h=1.8% p=-1.0hPa 403.401 MHz Type=M10 ser=106-2-13619 Radiosonde
ASTRA1ME1622E232022-12-06 13:09:4837.8639-0.38511955711416ID=Igate AEMET sonda 106-2-13619 Clb=-8.8m/s t=-54.7C h=1.2% p=-1.0hPa 403.398 MHz Type=M10 Batt V=4.9V
EB5AQ-11ME1622E232022-12-06 13:09:1037.8639-0.389879896711610Clb=-8.2m/s t=-55.5C h=0.0% p=-1.0hPa 403.401 MHz Type=M10 ser=106-2-13619 Radiosonde
ASTRA1ME1622E232022-12-06 13:08:5437.864-0.39161896911676ID=Igate AEMET sonda 106-2-13619 Clb=-8.1m/s t=-56.1C h=0.0% p=-1.0hPa 403.398 MHz Type=M10 Batt V=4.9V
EB5AQ-11ME1622E232022-12-06 13:08:1637.8641-0.3963877211860Clb=-8.2m/s t=-56.9C h=0.0% p=-1.0hPa 403.401 MHz Type=M10 ser=106-2-13619 Radiosonde
ASTRA1ME1622E232022-12-06 13:07:5737.864-0.39833887011934ID=Igate AEMET sonda 106-2-13619 Clb=-8.3m/s t=-56.5C h=0.0% p=-1.0hPa 403.398 MHz Type=M10 Batt V=5.0V
EB5AQ-11ME1622E232022-12-06 13:07:1637.8639-0.403509877012118Clb=-8.4m/s t=-57.5C h=0.0% p=-1.0hPa 403.401 MHz Type=M10 ser=106-2-13619 Radiosonde
ASTRA1ME1622E232022-12-06 13:07:0137.8638-0.4055887012194ID=Igate AEMET sonda 106-2-13619 Clb=-8.4m/s t=-57.9C h=0.0% p=-1.0hPa 403.398 MHz Type=M10 Batt V=5.0V
EB5AQ-11ME1622E232022-12-06 13:06:2837.8638-0.41011977212380Clb=-8.6m/s t=-58.0C h=0.0% p=-1.0hPa 403.401 MHz Type=M10 ser=106-2-13619 Radiosonde
ASTRA1ME1622E232022-12-06 13:06:1437.864-0.41209936712457ID=Igate AEMET sonda 106-2-13619 Clb=-8.6m/s t=-57.4C h=0.0% p=-1.0hPa 403.398 MHz Type=M10 Batt V=5.0V
EB5AQ-11ME1622E232022-12-06 13:05:4037.8643-0.417179936912654Clb=-8.9m/s t=-56.9C h=0.0% p=-1.0hPa 403.401 MHz Type=M10 ser=106-2-13619 Radiosonde
ASTRA1ME1622E232022-12-06 13:05:2837.8644-0.41894995612740ID=Igate AEMET sonda 106-2-13619 Clb=-9.3m/s t=-56.2C h=0.0% p=-1.0hPa 403.398 MHz Type=M10 Batt V=5.0V
EB5AQ-11ME1622E232022-12-06 13:04:5337.8646-0.42315956512957Clb=-10.3m/s t=-56.9C h=0.0% p=-1.0hPa 403.401 MHz Type=M10 ser=106-2-13619 Radiosonde
ASTRA1ME1622E232022-12-06 13:04:3937.8648-0.42511966913051ID=Igate AEMET sonda 106-2-13619 Clb=-10.6m/s t=-56.8C h=0.0% p=-1.0hPa 403.398 MHz Type=M10 Batt V=5.0V
EB5AQ-11ME1622E232022-12-06 13:03:5837.8654-0.4297311026113283Clb=-10.3m/s t=-57.8C h=0.0% p=-1.0hPa 403.401 MHz Type=M10 ser=106-2-13619 Radiosonde
ASTRA1ME1622E232022-12-06 13:03:4137.8657-0.4313991045913380ID=Igate AEMET sonda 106-2-13619 Clb=-10.9m/s t=-58.5C h=0.0% p=-1.0hPa 403.398 MHz Type=M10 Batt V=5.0V
EB5AQ-11ME1622E232022-12-06 13:03:0837.8668-0.4346791203513618Clb=-10.9m/s t=-59.3C h=0.0% p=-1.0hPa 403.401 MHz Type=M10 ser=106-2-13619 Radiosonde
ASTRA1ME1622E232022-12-06 13:02:5537.8671-0.435631173513718ID=Igate AEMET sonda 106-2-13619 Clb=-11.1m/s t=-59.8C h=0.0% p=-1.0hPa 403.398 MHz Type=M10 Batt V=5.0V
EB5AQ-11ME1622E232022-12-06 13:02:2137.8675-0.43822914413963Clb=-11.3m/s t=-58.8C h=0.0% p=-1.0hPa 403.401 MHz Type=M10 ser=106-2-13619 Radiosonde
ASTRA1ME1622E232022-12-06 13:02:0537.8676-0.43981925214074ID=Igate AEMET sonda 106-2-13619 Clb=-11.2m/s t=-59.5C h=0.0% p=-1.0hPa 403.398 MHz Type=M10 Batt V=5.0V
EB5AQ-11ME1622E232022-12-06 13:01:3637.8681-0.443111003714314Clb=-11.4m/s t=-60.1C h=0.0% p=-1.0hPa 403.401 MHz Type=M10 ser=106-2-13619 Radiosonde
ASTRA1ME1622E232022-12-06 13:01:1837.8682-0.44428934114419ID=Igate AEMET sonda 106-2-13619 Clb=-11.5m/s t=-60.5C h=0.0% p=-1.0hPa 403.398 MHz Type=M10 Batt V=5.0V
EB5AQ-11ME1622E232022-12-06 13:00:3737.868-0.447159904114673Clb=-11.3m/s t=-61.5C h=0.0% p=-1.0hPa 403.401 MHz Type=M10 ser=106-2-13619 Radiosonde
ASTRA1ME1622E232022-12-06 13:00:2037.8682-0.4486191004414791ID=Igate AEMET sonda 106-2-13619 Clb=-12.5m/s t=-61.8C h=0.0% p=-1.0hPa 403.399 MHz Type=M10 Batt V=5.0V
EB5AQ-11ME1622E232022-12-06 12:59:3337.8684-0.451341894615039Clb=-12.5m/s t=-62.2C h=0.0% p=-1.0hPa 403.401 MHz Type=M10 ser=106-2-13619 Radiosonde
ASTRA1ME1622E232022-12-06 12:59:1237.8681-0.4527824415158ID=Igate AEMET sonda 106-2-13619 Clb=-11.5m/s t=-62.3C h=0.0% p=-1.0hPa 403.399 MHz Type=M10 Batt V=5.0V
EB5AQ-11ME1622E232022-12-06 12:58:2937.868-0.45546943715409Clb=-12.1m/s t=-62.4C h=0.0% p=-1.0hPa 403.401 MHz Type=M10 ser=106-2-13619 Radiosonde
ASTRA1ME1622E232022-12-06 12:58:0737.8682-0.4566011103915530ID=Igate AEMET sonda 106-2-13619 Clb=-12.3m/s t=-62.7C h=0.0% p=-1.0hPa 403.399 MHz Type=M10 Batt V=5.0V
EB5AQ-11ME1622E232022-12-06 12:57:2237.8687-0.45843871515787Clb=-12.0m/s t=-63.9C h=0.0% p=-1.0hPa 403.402 MHz Type=M10 ser=106-2-13619 Radiosonde
ASTRA1ME1622E232022-12-06 12:57:0537.8685-0.45907632615912ID=Igate AEMET sonda 106-2-13619 Clb=-12.5m/s t=-63.9C h=0.0% p=-1.0hPa 403.399 MHz Type=M10 Batt V=5.0V
EB5AQ-11ME1622E232022-12-06 12:56:2937.8679-0.461769673916203Clb=-12.8m/s t=-65.0C h=0.0% p=-1.0hPa 403.402 MHz Type=M10 ser=106-2-13619 Radiosonde
ASTRA1ME1622E232022-12-06 12:56:1137.8677-0.462789794116306ID=Igate AEMET sonda 106-2-13619 Clb=-12.7m/s t=-64.8C h=0.0% p=-1.0hPa 403.399 MHz Type=M10 Batt V=5.0V
EB5AQ-11ME1622E232022-12-06 12:55:3437.8677-0.4662925216595Clb=-13.0m/s t=-65.4C h=0.0% p=-1.0hPa 403.402 MHz Type=M10 ser=106-2-13619 Radiosonde
ASTRA1ME1622E232022-12-06 12:55:1637.8679-0.467521013516713ID=Igate AEMET sonda 106-2-13619 Clb=-13.0m/s t=-65.9C h=0.0% p=-1.0hPa 403.399 MHz Type=M10 Batt V=5.0V
EB5AQ-11ME1622E232022-12-06 12:54:3637.8682-0.47022974117010Clb=-13.6m/s t=-66.2C h=0.0% p=-1.0hPa 403.402 MHz Type=M10 ser=106-2-13619 Radiosonde
ASTRA1ME1622E232022-12-06 12:54:2137.8683-0.4711591063717135ID=Igate AEMET sonda 106-2-13619 Clb=-13.5m/s t=-65.7C h=0.0% p=-1.0hPa 403.399 MHz Type=M10 Batt V=5.0V
EB5AQ-11ME1622E232022-12-06 12:53:4237.8687-0.473321893017442Clb=-13.9m/s t=-63.9C h=0.0% p=-1.0hPa 403.402 MHz Type=M10 ser=106-2-13619 Radiosonde
ASTRA1ME1622E232022-12-06 12:53:2537.8687-0.474049922417571ID=Igate AEMET sonda 106-2-13619 Clb=-14.0m/s t=-62.4C h=0.0% p=-1.0hPa 403.399 MHz Type=M10 Batt V=5.0V
EB5AQ-11ME1622E232022-12-06 12:52:4637.8691-0.4763211024317889Clb=-14.4m/s t=-63.0C h=0.0% p=-1.0hPa 403.401 MHz Type=M10 ser=106-2-13619 Radiosonde
ASTRA1ME1622E232022-12-06 12:52:2737.8694-0.4774711154118020ID=Igate AEMET sonda 106-2-13619 Clb=-14.3m/s t=-63.1C h=0.0% p=-1.0hPa 403.399 MHz Type=M10 Batt V=5.0V
EB5AQ-11ME1622E232022-12-06 12:51:4137.8702-0.479399962218360Clb=-14.6m/s t=-63.2C h=0.0% p=-1.0hPa 403.402 MHz Type=M10 ser=106-2-13619 Radiosonde
ASTRA1ME1622E232022-12-06 12:51:2137.8702-0.480081802618479ID=Igate AEMET sonda 106-2-13619 Clb=-14.9m/s t=-62.6C h=0.0% p=-1.0hPa 403.399 MHz Type=M10 Batt V=5.0V
EB5AQ-11ME1622E232022-12-06 12:50:4337.8696-0.482081703118818Clb=-15.4m/s t=-62.0C h=0.0% p=-1.0hPa 403.401 MHz Type=M10 ser=106-2-13619 Radiosonde
ASTRA1ME1622E232022-12-06 12:50:2237.8693-0.48293763018960ID=Igate AEMET sonda 106-2-13619 Clb=-15.8m/s t=-63.0C h=0.0% p=-1.0hPa 403.399 MHz Type=M10 Batt V=5.1V
EB5AQ-11ME1622E232022-12-06 12:49:3937.8692-0.484971643919319Clb=-16.4m/s t=-64.4C h=0.0% p=-1.0hPa 403.401 MHz Type=M10 ser=106-2-13619 Radiosonde
ASTRA1ME1622E232022-12-06 12:49:1937.8691-0.485899943319474ID=Igate AEMET sonda 106-2-13619 Clb=-17.6m/s t=-64.6C h=0.0% p=-1.0hPa 403.399 MHz Type=M10 Batt V=5.1V
EB5AQ-11ME1622E232022-12-06 12:48:3337.8689-0.488769874319860Clb=-17.9m/s t=-65.2C h=0.0% p=-1.0hPa 403.402 MHz Type=M10 ser=106-2-13619 Radiosonde
ASTRA1ME1622E232022-12-06 12:48:1437.8689-0.49022954820040ID=Igate AEMET sonda 106-2-13619 Clb=-18.2m/s t=-65.1C h=0.0% p=-1.0hPa 403.399 MHz Type=M10 Batt V=5.1V
EB5AQ-11ME1622E232022-12-06 12:47:2737.8694-0.493261223920448Clb=-19.0m/s t=-63.9C h=0.0% p=-1.0hPa 403.401 MHz Type=M10 ser=106-2-13619 Radiosonde
ASTRA1ME1622E232022-12-06 12:47:0837.8701-0.4941502420636ID=Igate AEMET sonda 106-2-13619 Clb=-19.4m/s t=-63.8C h=0.0% p=-1.0hPa 403.399 MHz Type=M10 Batt V=5.1V
AZOFA2-1ME1622E232022-12-06 12:46:4537.8708-0.495311093921006Clb=-20.3m/s t=-63.5C h=0.0% p=-1.0hPa 403.400 MHz Type=M10 ser=106-2-13619 Radiosonde
EB5AQ-11ME1622E232022-12-06 12:46:3037.871-0.495761103521085Clb=-20.0m/s t=-63.2C h=0.0% p=-1.0hPa 403.401 MHz Type=M10 ser=106-2-13619 Radiosonde
ASTRA1ME1622E232022-12-06 12:46:1337.8715-0.496671091521266ID=Igate AEMET sonda 106-2-13619 Clb=-20.2m/s t=-62.7C h=0.0% p=-1.0hPa 403.399 MHz Type=M10 Batt V=5.1V
EB5AQ-11ME1622E232022-12-06 12:45:3237.8723-0.4982311532421732Clb=-21.0m/s t=-61.5C h=0.0% p=-1.0hPa 403.401 MHz Type=M10 ser=106-2-13619 Radiosonde
ASTRA1ME1622E232022-12-06 12:45:0737.873-0.498651542821963ID=Igate AEMET sonda 106-2-13619 Clb=-21.4m/s t=-61.2C h=0.0% p=-1.0hPa 403.399 MHz Type=M10 Batt V=5.1V
EB5AQ-11ME1622E232022-12-06 12:44:2537.8737-0.50152883022878Clb=-23.4m/s t=-60.0C h=0.0% p=-1.0hPa 403.402 MHz Type=M10 ser=106-2-13619 Radiosonde
ASTRA1ME1622E232022-12-06 12:44:0237.8735-0.502549972823155ID=Igate AEMET sonda 106-2-13619 Clb=-23.7m/s t=-59.6C h=0.0% p=-1.0hPa 403.399 MHz Type=M10 Batt V=5.1V
EB5AQ-11ME1622E232022-12-06 12:43:5837.8735-0.502549972823155Clb=-23.7m/s t=-59.6C h=0.0% p=-1.0hPa 403.402 MHz Type=M10 ser=106-2-13619 Radiosonde
ASTRA1ME1622E232022-12-06 12:43:4937.8748-0.5073611322824763ID=Igate AEMET sonda 106-2-13619 Clb=-47.3m/s t=-57.2C h=0.0% p=-1.0hPa 403.399 MHz Type=M10 Batt V=5.1V
EA4EKH-11ME1622E232022-12-06 12:43:4837.8749-0.507431303324811Clb=-46.5m/s t=-57.0C h=0.0% p=-1.0hPa 403.402 MHz Type=M10 ser=106-2-13619 Radiosonde
EB5AQ-11ME1622E232022-12-06 12:43:4737.8749-0.5076191033124905Clb=-45.8m/s t=-57.1C h=0.0% p=-1.0hPa 403.402 MHz Type=M10 ser=106-2-13619 Radiosonde
ASTRA1ME1622E232022-12-06 12:43:4437.8749-0.5080811122425175ID=Igate AEMET sonda 106-2-13619 Clb=-22.0m/s t=-57.7C h=0.0% p=-1.0hPa 403.399 MHz Type=M10 Batt V=5.1V
EA4EKH-11ME1622E232022-12-06 12:43:3437.8754-0.5098611422425092Clb=5.5m/s t=-57.6C h=0.0% p=-1.0hPa 403.401 MHz Type=M10 ser=106-2-13619 Radiosonde
EB5AQ-11ME1622E232022-12-06 12:43:3337.8754-0.5098611422425092Clb=5.5m/s t=-57.6C h=0.0% p=-1.0hPa 403.402 MHz Type=M10 ser=106-2-13619 Radiosonde
ASTRA1ME1622E232022-12-06 12:43:2837.8756-0.5107491242425043ID=Igate AEMET sonda 106-2-13619 Clb=5.2m/s t=-57.1C h=0.0% p=-1.0hPa 403.399 MHz Type=M10 Batt V=5.1V
EA4EKH-11ME1622E232022-12-06 12:43:1837.8759-0.51291963324923Clb=5.7m/s t=-57.0C h=0.0% p=-1.0hPa 403.401 MHz Type=M10 ser=106-2-13619 Radiosonde
EB5AQ-11ME1622E232022-12-06 12:43:1437.876-0.5135993324892Clb=4.3m/s t=-57.0C h=0.0% p=-1.0hPa 403.402 MHz Type=M10 ser=106-2-13619 Radiosonde
ASTRA1ME1622E232022-12-06 12:43:0337.8763-0.514341963324852ID=Igate AEMET sonda 106-2-13619 Clb=5.5m/s t=-57.1C h=0.0% p=-1.0hPa 403.399 MHz Type=M10 Batt V=5.1V
AZOFA2-1ME1622E232022-12-06 12:42:3637.8768-0.515931163124762Clb=6.4m/s t=-57.4C h=0.0% p=-1.0hPa 403.401 MHz Type=M10 ser=106-2-13619 Radiosonde
EB5AQ-11ME1622E232022-12-06 12:42:3237.877-0.516221284124745Clb=6.0m/s t=-57.4C h=0.0% p=-1.0hPa 403.402 MHz Type=M10 ser=106-2-13619 Radiosonde
ASTRA1ME1622E232022-12-06 12:42:1037.8774-0.5169511183524694ID=Igate AEMET sonda 106-2-13619 Clb=5.0m/s t=-57.8C h=0.0% p=-1.0hPa 403.399 MHz Type=M10 Batt V=5.1V
EA4EKH-11ME1622E232022-12-06 12:42:0037.8785-0.5186791083524578Clb=6.7m/s t=-57.9C h=0.0% p=-1.0hPa 403.401 MHz Type=M10 ser=106-2-13619 Radiosonde
ASTRA1ME1622E232022-12-06 12:41:5937.879-0.520211984424504ID=Igate AEMET sonda 106-2-13619 Clb=6.6m/s t=-58.2C h=0.0% p=-1.0hPa 403.399 MHz Type=M10 Batt V=5.1V
EB5AQ-11ME1622E232022-12-06 12:41:5537.8798-0.5226191173324387Clb=6.5m/s t=-58.0C h=0.0% p=-1.0hPa 403.402 MHz Type=M10 ser=106-2-13619 Radiosonde
ASTRA1ME1622E232022-12-06 12:41:5337.88-0.5233791183924342ID=Igate AEMET sonda 106-2-13619 Clb=4.7m/s t=-58.3C h=0.0% p=-1.0hPa 403.399 MHz Type=M10 Batt V=5.1V
EB5AQ-11ME1622E232022-12-06 12:41:5237.8808-0.5249191232624221Clb=5.7m/s t=-58.5C h=0.0% p=-1.0hPa 403.402 MHz Type=M10 ser=106-2-13619 Radiosonde
ASTRA1ME1622E232022-12-06 12:41:5137.8811-0.5253991143724179ID=Igate AEMET sonda 106-2-13619 Clb=5.0m/s t=-58.3C h=0.0% p=-1.0hPa 403.399 MHz Type=M10 Batt V=5.1V
EA4EKH-11ME1622E232022-12-06 12:41:4937.8819-0.5269891282224085Clb=5.0m/s t=-58.4C h=0.0% p=-1.0hPa 403.402 MHz Type=M10 ser=106-2-13619 Radiosonde
AZOFA2-1ME1622E232022-12-06 12:41:4837.8824-0.529911022023923Clb=4.7m/s t=-58.8C h=0.0% p=-1.0hPa 403.400 MHz Type=M10 ser=106-2-13619 Radiosonde
EB5AQ-11ME1622E232022-12-06 12:41:4737.8824-0.529911022023923Clb=4.7m/s t=-58.8C h=0.0% p=-1.0hPa 403.402 MHz Type=M10 ser=106-2-13619 Radiosonde
ASTRA1ME1622E232022-12-06 12:41:4637.8825-0.5309191072023873ID=Igate AEMET sonda 106-2-13619 Clb=4.8m/s t=-59.0C h=0.0% p=-1.0hPa 403.399 MHz Type=M10 Batt V=5.2V
EB5AQ-11ME1622E232022-12-06 12:41:4337.8828-0.53298872423764Clb=5.6m/s t=-59.5C h=0.0% p=-1.0hPa 403.402 MHz Type=M10 ser=106-2-13619 Radiosonde
ASTRA1ME1622E232022-12-06 12:41:3737.8829-0.53398782023719ID=Igate AEMET sonda 106-2-13619 Clb=5.3m/s t=-59.9C h=0.0% p=-1.0hPa 403.399 MHz Type=M10 Batt V=5.2V
AZOFA2-1ME1622E232022-12-06 12:41:1537.883-0.5355291062823626Clb=5.6m/s t=-60.3C h=0.0% p=-1.0hPa 403.400 MHz Type=M10 ser=106-2-13619 Radiosonde
ASTRA1ME1622E232022-12-06 12:41:0337.8832-0.5366191093923563ID=Igate AEMET sonda 106-2-13619 Clb=4.0m/s t=-60.0C h=0.0% p=-1.0hPa 403.399 MHz Type=M10 Batt V=5.2V
ASTRA1ME1622E232022-12-06 12:40:0437.8834-0.539119771923414ID=Igate AEMET sonda 106-2-13619 Clb=4.2m/s t=-59.4C h=0.0% p=-1.0hPa 403.399 MHz Type=M10 Batt V=5.2V
AZOFA2-1ME1622E232022-12-06 12:39:2737.8838-0.541769742223254Clb=4.3m/s t=-59.7C h=0.0% p=-1.0hPa 403.401 MHz Type=M10 ser=106-2-13619 Radiosonde
EB5AQ-11ME1622E232022-12-06 12:39:2037.8838-0.541769742223254Clb=4.3m/s t=-59.7C h=0.0% p=-1.0hPa 403.402 MHz Type=M10 ser=106-2-13619 Radiosonde
ASTRA1ME1622E232022-12-06 12:38:5637.8837-0.541841772423249ID=Igate AEMET sonda 106-2-13619 Clb=4.9m/s t=-59.7C h=0.0% p=-1.0hPa 403.399 MHz Type=M10 Batt V=5.2V
AZOFA2-1ME1622E232022-12-06 12:38:1737.8838-0.54337773023153Clb=6.1m/s t=-59.7C h=0.0% p=-1.0hPa 403.401 MHz Type=M10 ser=106-2-13619 Radiosonde
EB5AQ-11ME1622E232022-12-06 12:38:1237.8837-0.543639782623136Clb=6.0m/s t=-59.6C h=0.0% p=-1.0hPa 403.402 MHz Type=M10 ser=106-2-13619 Radiosonde
ASTRA1ME1622E232022-12-06 12:37:4537.8837-0.544451752423076ID=Igate AEMET sonda 106-2-13619 Clb=4.4m/s t=-59.9C h=0.0% p=-1.0hPa 403.399 MHz Type=M10 Batt V=5.2V
AZOFA2-1ME1622E232022-12-06 12:37:0437.8837-0.54546972022981Clb=5.8m/s t=-60.1C h=0.0% p=-1.0hPa 403.401 MHz Type=M10 ser=106-2-13619 Radiosonde
EB5AQ-11ME1622E232022-12-06 12:36:5837.8836-0.54569732422964Clb=5.1m/s t=-60.2C h=0.0% p=-1.0hPa 403.402 MHz Type=M10 ser=106-2-13619 Radiosonde
ASTRA1ME1622E232022-12-06 12:36:3637.8835-0.54624722222908ID=Igate AEMET sonda 106-2-13619 Clb=5.6m/s t=-60.1C h=0.0% p=-1.0hPa 403.399 MHz Type=M10 Batt V=5.2V
EB5AQ-11ME1622E232022-12-06 12:35:5037.8834-0.54750998422780Clb=6.0m/s t=-60.2C h=0.0% p=-1.0hPa 403.402 MHz Type=M10 ser=106-2-13619 Radiosonde
ASTRA1ME1622E232022-12-06 12:35:2437.8835-0.547851192222735ID=Igate AEMET sonda 106-2-13619 Clb=5.4m/s t=-59.8C h=0.0% p=-1.0hPa 403.399 MHz Type=M10 Batt V=5.2V
EB5AQ-11ME1622E232022-12-06 12:34:2637.8835-0.5492691052022589Clb=5.5m/s t=-59.3C h=0.0% p=-1.0hPa 403.402 MHz Type=M10 ser=106-2-13619 Radiosonde
ASTRA1ME1622E232022-12-06 12:33:5937.8835-0.54965723122567ID=Igate AEMET sonda 106-2-13619 Clb=4.4m/s t=-59.4C h=0.0% p=-1.0hPa 403.399 MHz Type=M10 Batt V=5.2V
EB5AQ-11ME1622E232022-12-06 12:33:0737.8834-0.5511191033322457Clb=5.5m/s t=-59.5C h=0.0% p=-1.0hPa 403.402 MHz Type=M10 ser=106-2-13619 Radiosonde
AZOFA2-1ME1622E232022-12-06 12:32:2737.8987-0.61061764319459Clb=5.4m/s t=-63.8C h=0.0% p=-1.0hPa 403.401 MHz Type=M10 ser=106-2-13619 Radiosonde
EB5AQ-11ME1622E232022-12-06 12:32:2037.8986-0.61115662219435Clb=4.6m/s t=-63.6C h=0.0% p=-1.0hPa 403.403 MHz Type=M10 ser=106-2-13619 Radiosonde
ASTRA1ME1622E232022-12-06 12:31:5537.8983-0.612101643519389ID=Igate AEMET sonda 106-2-13619 Clb=4.9m/s t=-63.2C h=0.0% p=-1.0hPa 403.399 MHz Type=M10 Batt V=5.3V
AZOFA2-1ME1622E232022-12-06 12:31:1337.8979-0.614179762619291Clb=4.6m/s t=-62.5C h=0.0% p=-1.0hPa 403.401 MHz Type=M10 ser=106-2-13619 Radiosonde
EB5AQ-11ME1622E232022-12-06 12:31:0737.8979-0.614269833019286Clb=4.6m/s t=-62.5C h=0.0% p=-1.0hPa 403.403 MHz Type=M10 ser=106-2-13619 Radiosonde
ASTRA1ME1622E232022-12-06 12:30:4237.8978-0.61526752019242ID=Igate AEMET sonda 106-2-13619 Clb=5.0m/s t=-62.5C h=0.0% p=-1.0hPa 403.399 MHz Type=M10 Batt V=5.3V
AZOFA2-1ME1622E232022-12-06 12:29:5837.8974-0.61689653119147Clb=5.6m/s t=-62.3C h=0.0% p=-1.0hPa 403.401 MHz Type=M10 ser=106-2-13619 Radiosonde
EB5AQ-11ME1622E232022-12-06 12:29:5337.8973-0.617081702819138Clb=4.7m/s t=-62.3C h=0.0% p=-1.0hPa 403.403 MHz Type=M10 ser=106-2-13619 Radiosonde
ASTRA1ME1622E232022-12-06 12:29:2737.8969-0.61776653019093ID=Igate AEMET sonda 106-2-13619 Clb=5.6m/s t=-62.3C h=0.0% p=-1.0hPa 403.399 MHz Type=M10 Batt V=5.3V
AZOFA2-1ME1622E232022-12-06 12:28:4737.8966-0.619451832218991Clb=5.1m/s t=-61.6C h=0.0% p=-1.0hPa 403.401 MHz Type=M10 ser=106-2-13619 Radiosonde
EB5AQ-11ME1622E232022-12-06 12:28:4137.8966-0.619451832218991Clb=5.1m/s t=-61.6C h=0.0% p=-1.0hPa 403.403 MHz Type=M10 ser=106-2-13619 Radiosonde
ASTRA1ME1622E232022-12-06 12:28:1737.8966-0.6201391032818943ID=Igate AEMET sonda 106-2-13619 Clb=4.7m/s t=-61.4C h=0.0% p=-1.0hPa 403.400 MHz Type=M10 Batt V=5.3V
EB5AQ-11ME1622E232022-12-06 12:27:3237.8967-0.621781031918845Clb=4.4m/s t=-61.3C h=0.0% p=-1.0hPa 403.403 MHz Type=M10 ser=106-2-13619 Radiosonde
ASTRA1ME1622E232022-12-06 12:27:0937.8968-0.6225091222418798ID=Igate AEMET sonda 106-2-13619 Clb=5.2m/s t=-61.3C h=0.0% p=-1.0hPa 403.399 MHz Type=M10 Batt V=5.3V
AZOFA2-1ME1622E232022-12-06 12:26:3337.8968-0.623951812818712Clb=5.1m/s t=-61.3C h=0.0% p=-1.0hPa 403.401 MHz Type=M10 ser=106-2-13619 Radiosonde
ASTRA1ME1622E232022-12-06 12:26:0437.8969-0.62496852618655ID=Igate AEMET sonda 106-2-13619 Clb=5.1m/s t=-61.2C h=0.0% p=-1.0hPa 403.400 MHz Type=M10 Batt V=5.3V
EB5AQ-11ME1622E232022-12-06 12:25:1937.8965-0.62657632218553Clb=5.0m/s t=-60.9C h=0.0% p=-1.0hPa 403.402 MHz Type=M10 ser=106-2-13619 Radiosonde
ASTRA1ME1622E232022-12-06 12:24:4837.8962-0.627119492818506ID=Igate AEMET sonda 106-2-13619 Clb=5.2m/s t=-60.7C h=0.0% p=-1.0hPa 403.400 MHz Type=M10 Batt V=5.3V
AZOFA2-1ME1622E232022-12-06 12:24:0637.8953-0.628549441318400Clb=4.5m/s t=-60.3C h=0.0% p=-1.0hPa 403.401 MHz Type=M10 ser=106-2-13619 Radiosonde
EB5AQ-11ME1622E232022-12-06 12:24:0037.8952-0.62874692818383Clb=3.9m/s t=-60.3C h=0.0% p=-1.0hPa 403.403 MHz Type=M10 ser=106-2-13619 Radiosonde
ASTRA1ME1622E232022-12-06 12:23:3637.8951-0.62906542818365ID=Igate AEMET sonda 106-2-13619 Clb=4.9m/s t=-60.3C h=0.0% p=-1.0hPa 403.400 MHz Type=M10 Batt V=5.3V
EB5AQ-11ME1622E232022-12-06 12:22:4937.8949-0.630521031718274Clb=4.5m/s t=-61.0C h=0.0% p=-1.0hPa 403.403 MHz Type=M10 ser=106-2-13619 Radiosonde
ASTRA1ME1622E232022-12-06 12:22:2037.8951-0.631379941918225ID=Igate AEMET sonda 106-2-13619 Clb=4.1m/s t=-61.0C h=0.0% p=-1.0hPa 403.400 MHz Type=M10 Batt V=5.3V
EB5AQ-11ME1622E232022-12-06 12:21:3237.8959-0.633091313018104Clb=4.4m/s t=-61.5C h=0.0% p=-1.0hPa 403.403 MHz Type=M10 ser=106-2-13619 Radiosonde
ASTRA1ME1622E232022-12-06 12:21:0437.8961-0.6334711103318081ID=Igate AEMET sonda 106-2-13619 Clb=4.2m/s t=-61.6C h=0.0% p=-1.0hPa 403.399 MHz Type=M10 Batt V=5.3V
AZOFA2-1ME1622E232022-12-06 12:20:0937.8969-0.635261204617998Clb=4.7m/s t=-62.0C h=0.0% p=-1.0hPa 403.401 MHz Type=M10 ser=106-2-13619 Radiosonde
EB5AQ-11ME1622E232022-12-06 12:19:5837.8971-0.63551254417989Clb=3.8m/s t=-62.0C h=0.0% p=-1.0hPa 403.402 MHz Type=M10 ser=106-2-13619 Radiosonde
ASTRA1ME1622E232022-12-06 12:19:1437.8978-0.636851234417940ID=Igate AEMET sonda 106-2-13619 Clb=4.1m/s t=-61.7C h=0.0% p=-1.0hPa 403.399 MHz Type=M10 Batt V=5.4V
AZOFA2-1ME1622E232022-12-06 12:18:2437.8989-0.6391591264117859Clb=3.9m/s t=-62.2C h=0.0% p=-1.0hPa 403.401 MHz Type=M10 ser=106-2-13619 Radiosonde
EB5AQ-11ME1622E232022-12-06 12:18:2037.899-0.639391144617850Clb=5.1m/s t=-62.3C h=0.0% p=-1.0hPa 403.403 MHz Type=M10 ser=106-2-13619 Radiosonde
ASTRA1ME1622E232022-12-06 12:17:5637.8996-0.6409511034417801ID=Igate AEMET sonda 106-2-13619 Clb=4.6m/s t=-62.3C h=0.0% p=-1.0hPa 403.399 MHz Type=M10 Batt V=5.4V
EB5AQ-11ME1622E232022-12-06 12:17:1337.9004-0.643761183717706Clb=4.6m/s t=-62.2C h=0.0% p=-1.0hPa 403.403 MHz Type=M10 ser=106-2-13619 Radiosonde
ASTRA1ME1622E232022-12-06 12:16:4937.9008-0.6449511153917660ID=Igate AEMET sonda 106-2-13619 Clb=4.9m/s t=-63.3C h=0.0% p=-1.0hPa 403.399 MHz Type=M10 Batt V=5.4V
EB5AQ-11ME1622E232022-12-06 12:16:0337.9013-0.6469711024117568Clb=4.7m/s t=-65.3C h=0.0% p=-1.0hPa 403.403 MHz Type=M10 ser=106-2-13619 Radiosonde
ASTRA1ME1622E232022-12-06 12:15:5937.9016-0.648171063917516ID=Igate AEMET sonda 106-2-13619 Clb=4.5m/s t=-66.3C h=0.0% p=-1.0hPa 403.400 MHz Type=M10 Batt V=5.4V
AZOFA2-1ME1622E232022-12-06 12:15:5837.9021-0.650119903117428Clb=4.7m/s t=-66.4C h=0.0% p=-1.0hPa 403.401 MHz Type=M10 ser=106-2-13619 Radiosonde
ASTRA1ME1622E232022-12-06 12:15:5737.9024-0.651711964117366ID=Igate AEMET sonda 106-2-13619 Clb=5.3m/s t=-66.8C h=0.0% p=-1.0hPa 403.400 MHz Type=M10 Batt V=5.4V
EB5AQ-11ME1622E232022-12-06 12:15:5537.9028-0.65407923117266Clb=4.7m/s t=-67.0C h=0.0% p=-1.0hPa 403.403 MHz Type=M10 ser=106-2-13619 Radiosonde
ASTRA1ME1622E232022-12-06 12:15:5437.9029-0.655139993917219ID=Igate AEMET sonda 106-2-13619 Clb=4.5m/s t=-66.8C h=0.0% p=-1.0hPa 403.400 MHz Type=M10 Batt V=5.4V
AZOFA2-1ME1622E232022-12-06 12:15:5137.9034-0.6584511013517095Clb=5.3m/s t=-67.2C h=0.0% p=-1.0hPa 403.401 MHz Type=M10 ser=106-2-13619 Radiosonde
ASTRA1ME1622E232022-12-06 12:15:5037.9034-0.6589191024117076ID=Igate AEMET sonda 106-2-13619 Clb=4.4m/s t=-67.3C h=0.0% p=-1.0hPa 403.400 MHz Type=M10 Batt V=5.4V
AZOFA2-1ME1622E232022-12-06 12:15:4837.9039-0.661041044416996Clb=4.0m/s t=-67.0C h=0.0% p=-1.0hPa 403.401 MHz Type=M10 ser=106-2-13619 Radiosonde
ASTRA1ME1622E232022-12-06 12:15:4737.9042-0.662679994416942ID=Igate AEMET sonda 106-2-13619 Clb=4.1m/s t=-66.9C h=0.0% p=-1.0hPa 403.399 MHz Type=M10 Batt V=5.4V
AZOFA2-1ME1622E232022-12-06 12:15:4537.9046-0.665131084116863Clb=4.0m/s t=-66.6C h=0.0% p=-1.0hPa 403.401 MHz Type=M10 ser=106-2-13619 Radiosonde
ASTRA1ME1622E232022-12-06 12:15:3537.905-0.666681053916806ID=Igate AEMET sonda 106-2-13619 Clb=4.1m/s t=-66.3C h=0.0% p=-1.0hPa 403.399 MHz Type=M10 Batt V=5.4V
AZOFA2-1ME1622E232022-12-06 12:15:2437.9054-0.669249894316723Clb=4.8m/s t=-65.8C h=0.0% p=-1.0hPa 403.401 MHz Type=M10 ser=106-2-13619 Radiosonde
ASTRA1ME1622E232022-12-06 12:15:1037.9056-0.670989954416670ID=Igate AEMET sonda 106-2-13619 Clb=3.9m/s t=-65.6C h=0.0% p=-1.0hPa 403.400 MHz Type=M10 Batt V=5.4V
AZOFA2-1ME1622E232022-12-06 12:14:5137.9061-0.673951965916585Clb=5.8m/s t=-65.3C h=0.0% p=-1.0hPa 403.401 MHz Type=M10 ser=106-2-13619 Radiosonde
EB5AQ-11ME1622E232022-12-06 12:14:4837.9061-0.674361886516575Clb=4.9m/s t=-65.2C h=0.0% p=-1.0hPa 403.403 MHz Type=M10 ser=106-2-13619 Radiosonde
ASTRA1ME1622E232022-12-06 12:14:2237.9062-0.67611856116532ID=Igate AEMET sonda 106-2-13619 Clb=5.0m/s t=-65.1C h=0.0% p=-1.0hPa 403.400 MHz Type=M10 Batt V=5.4V
AZOFA2-1ME1622E232022-12-06 12:13:4337.9064-0.679151024416448Clb=4.2m/s t=-64.9C h=0.0% p=-1.0hPa 403.403 MHz Type=M10 ser=106-2-13619 Radiosonde
EB5AQ-11ME1622E232022-12-06 12:13:4037.9064-0.679451935216440Clb=5.0m/s t=-64.9C h=0.0% p=-1.0hPa 403.403 MHz Type=M10 ser=106-2-13619 Radiosonde
ASTRA1ME1622E232022-12-06 12:13:1737.9064-0.680941023916394ID=Igate AEMET sonda 106-2-13619 Clb=4.7m/s t=-64.7C h=0.0% p=-1.0hPa 403.400 MHz Type=M10 Batt V=5.4V
AZOFA2-1ME1622E232022-12-06 12:12:3237.9065-0.683451834116309Clb=4.9m/s t=-64.2C h=0.0% p=-1.0hPa 403.401 MHz Type=M10 ser=106-2-13619 Radiosonde
EB5AQ-11ME1622E232022-12-06 12:12:3037.9064-0.68357893716305Clb=4.6m/s t=-64.2C h=0.0% p=-1.0hPa 403.403 MHz Type=M10 ser=106-2-13619 Radiosonde
ASTRA1ME1622E232022-12-06 12:12:0437.9064-0.684981013516252ID=Igate AEMET sonda 106-2-13619 Clb=4.5m/s t=-64.0C h=0.0% p=-1.0hPa 403.400 MHz Type=M10 Batt V=5.4V
EB5AQ-11ME1622E232022-12-06 12:11:1837.9062-0.68691933916165Clb=5.0m/s t=-64.7C h=0.0% p=-1.0hPa 403.403 MHz Type=M10 ser=106-2-13619 Radiosonde
ASTRA1ME1622E232022-12-06 12:10:5237.906-0.688399793916112ID=Igate AEMET sonda 106-2-13619 Clb=5.1m/s t=-64.4C h=0.0% p=-1.0hPa 403.400 MHz Type=M10 Batt V=5.4V
AZOFA2-1ME1622E232022-12-06 12:09:4537.9138-0.774549905713087Clb=3.7m/s t=-56.7C h=0.3% p=-1.0hPa 403.404 MHz Type=M10 ser=106-2-13619 Radiosonde
EB5AQ-11ME1622E232022-12-06 12:09:3937.9138-0.77474905913082Clb=4.8m/s t=-56.6C h=0.3% p=-1.0hPa 403.403 MHz Type=M10 ser=106-2-13619 Radiosonde
ASTRA1ME1622E232022-12-06 12:09:0837.914-0.77719876113033ID=Igate AEMET sonda 106-2-13619 Clb=3.9m/s t=-56.3C h=0.4% p=-1.0hPa 403.400 MHz Type=M10 Batt V=5.5V
AZOFA2-1ME1622E232022-12-06 12:08:2337.9139-0.780919946912954Clb=4.7m/s t=-56.0C h=0.9% p=-1.0hPa 403.401 MHz Type=M10 ser=106-2-13619 Radiosonde
EB5AQ-11ME1622E232022-12-06 12:08:2137.9139-0.781139966912950Clb=5.0m/s t=-56.0C h=0.9% p=-1.0hPa 403.403 MHz Type=M10 ser=106-2-13619 Radiosonde
ASTRA1ME1622E232022-12-06 12:07:4837.914-0.783749967212900ID=Igate AEMET sonda 106-2-13619 Clb=3.5m/s t=-55.9C h=1.3% p=-1.0hPa 403.400 MHz Type=M10 Batt V=5.5V
AZOFA2-1ME1622E232022-12-06 12:07:0237.914-0.78746995912826Clb=4.3m/s t=-56.0C h=1.9% p=-1.0hPa 403.402 MHz Type=M10 ser=106-2-13619 Radiosonde
EB5AQ-11ME1622E232022-12-06 12:07:0137.9141-0.787651036112821Clb=5.1m/s t=-56.0C h=1.9% p=-1.0hPa 403.403 MHz Type=M10 ser=106-2-13619 Radiosonde
ASTRA1ME1622E232022-12-06 12:06:3737.9142-0.78983985712775ID=Igate AEMET sonda 106-2-13619 Clb=3.9m/s t=-56.1C h=2.2% p=-1.0hPa 403.400 MHz Type=M10 Batt V=5.5V
AZOFA2-1ME1622E232022-12-06 12:05:5237.9145-0.792731945612694Clb=4.9m/s t=-55.7C h=2.6% p=-1.0hPa 403.402 MHz Type=M10 ser=106-2-13619 Radiosonde
EB5AQ-11ME1622E232022-12-06 12:05:5037.9145-0.79291945612689Clb=4.6m/s t=-55.7C h=2.6% p=-1.0hPa 403.403 MHz Type=M10 ser=106-2-13619 Radiosonde
ASTRA1ME1622E232022-12-06 12:05:2237.9147-0.795119955912637ID=Igate AEMET sonda 106-2-13619 Clb=4.8m/s t=-55.7C h=2.8% p=-1.0hPa 403.400 MHz Type=M10 Batt V=5.5V
AZOFA2-1ME1622E232022-12-06 12:04:3637.915-0.798749966512562Clb=3.8m/s t=-56.2C h=3.0% p=-1.0hPa 403.402 MHz Type=M10 ser=106-2-13619 Radiosonde
EB5AQ-11ME1622E232022-12-06 12:04:3437.915-0.79896946712558Clb=4.5m/s t=-56.3C h=3.0% p=-1.0hPa 403.403 MHz Type=M10 ser=106-2-13619 Radiosonde
ASTRA1ME1622E232022-12-06 12:04:0137.9152-0.80165946912508ID=Igate AEMET sonda 106-2-13619 Clb=3.7m/s t=-56.8C h=3.2% p=-1.0hPa 403.400 MHz Type=M10 Batt V=5.5V
AZOFA2-1ME1622E232022-12-06 12:03:1737.9155-0.80568936512441Clb=4.5m/s t=-57.4C h=3.7% p=-1.0hPa 403.404 MHz Type=M10 ser=106-2-13619 Radiosonde
EB5AQ-11ME1622E232022-12-06 12:03:1537.9155-0.80589946512437Clb=3.5m/s t=-57.4C h=3.8% p=-1.0hPa 403.403 MHz Type=M10 ser=106-2-13619 Radiosonde
ASTRA1ME1622E232022-12-06 12:02:5037.9156-0.80856906712386ID=Igate AEMET sonda 106-2-13619 Clb=4.4m/s t=-57.0C h=3.9% p=-1.0hPa 403.400 MHz Type=M10 Batt V=5.5V
AZOFA2-1ME1622E232022-12-06 12:02:0937.9156-0.812451865912311Clb=4.2m/s t=-57.2C h=4.2% p=-1.0hPa 403.402 MHz Type=M10 ser=106-2-13619 Radiosonde
EB5AQ-11ME1622E232022-12-06 12:02:0737.9156-0.81265896312308Clb=4.3m/s t=-57.2C h=4.2% p=-1.0hPa 403.403 MHz Type=M10 ser=106-2-13619 Radiosonde
ASTRA1ME1622E232022-12-06 12:01:4337.9158-0.81485985712256ID=Igate AEMET sonda 106-2-13619 Clb=4.2m/s t=-57.4C h=4.7% p=-1.0hPa 403.400 MHz Type=M10 Batt V=5.5V
AZOFA2-1ME1622E232022-12-06 12:01:0537.916-0.818231895912180Clb=4.3m/s t=-57.1C h=5.3% p=-1.0hPa 403.402 MHz Type=M10 ser=106-2-13619 Radiosonde
EB5AQ-11ME1622E232022-12-06 12:01:0437.916-0.81841895712175Clb=5.4m/s t=-57.1C h=5.4% p=-1.0hPa 403.403 MHz Type=M10 ser=106-2-13619 Radiosonde
ASTRA1ME1622E232022-12-06 12:00:3937.916-0.820639915612118ID=Igate AEMET sonda 106-2-13619 Clb=5.8m/s t=-56.8C h=5.6% p=-1.0hPa 403.401 MHz Type=M10 Batt V=5.5V
AZOFA2-1ME1622E232022-12-06 11:59:5037.916-0.82411895712034Clb=5.2m/s t=-56.6C h=6.3% p=-1.0hPa 403.401 MHz Type=M10 ser=106-2-13619 Radiosonde
EB5AQ-11ME1622E232022-12-06 11:59:4737.916-0.82411895712034Clb=5.2m/s t=-56.6C h=6.3% p=-1.0hPa 403.403 MHz Type=M10 ser=106-2-13619 Radiosonde
ASTRA1ME1622E232022-12-06 11:59:1637.9161-0.82646936711978ID=Igate AEMET sonda 106-2-13619 Clb=5.6m/s t=-56.1C h=6.6% p=-1.0hPa 403.401 MHz Type=M10 Batt V=5.5V
AZOFA2-1ME1622E232022-12-06 11:58:2937.9161-0.83015895611888Clb=5.0m/s t=-55.5C h=7.2% p=-1.0hPa 403.404 MHz Type=M10 ser=106-2-13619 Radiosonde
EB5AQ-11ME1622E232022-12-06 11:58:2637.9161-0.83015895611888Clb=5.0m/s t=-55.5C h=7.2% p=-1.0hPa 403.403 MHz Type=M10 ser=106-2-13619 Radiosonde
ASTRA1ME1622E232022-12-06 11:57:5337.9162-0.83263936111826ID=Igate AEMET sonda 106-2-13619 Clb=4.0m/s t=-55.3C h=7.7% p=-1.0hPa 403.401 MHz Type=M10 Batt V=5.5V
AZOFA2-1ME1622E232022-12-06 11:57:1137.9165-0.835871035911745Clb=4.4m/s t=-55.1C h=8.3% p=-1.0hPa 403.402 MHz Type=M10 ser=106-2-13619 Radiosonde
EB5AQ-11ME1622E232022-12-06 11:57:0937.9166-0.836061016111741Clb=3.5m/s t=-55.1C h=8.4% p=-1.0hPa 403.403 MHz Type=M10 ser=106-2-13619 Radiosonde
ASTRA1ME1622E232022-12-06 11:56:4337.9169-0.838151115711688ID=Igate AEMET sonda 106-2-13619 Clb=3.8m/s t=-55.0C h=8.7% p=-1.0hPa 403.401 MHz Type=M10 Batt V=5.5V
AZOFA2-1ME1622E232022-12-06 11:56:0637.9177-0.841091115011607Clb=4.0m/s t=-55.6C h=9.6% p=-1.0hPa 403.402 MHz Type=M10 ser=106-2-13619 Radiosonde
EB5AQ-11ME1622E232022-12-06 11:56:0437.9177-0.8412491165411603Clb=5.0m/s t=-55.6C h=9.7% p=-1.0hPa 403.403 MHz Type=M10 ser=106-2-13619 Radiosonde
ASTRA1ME1622E232022-12-06 11:55:3937.9185-0.842891175711550ID=Igate AEMET sonda 106-2-13619 Clb=4.8m/s t=-55.5C h=10.2% p=-1.0hPa 403.401 MHz Type=M10 Batt V=5.5V
AZOFA2-1ME1622E232022-12-06 11:54:5737.9194-0.845611105611471Clb=4.0m/s t=-55.2C h=10.5% p=-1.0hPa 403.404 MHz Type=M10 ser=106-2-13619 Radiosonde
EB5AQ-11ME1622E232022-12-06 11:54:5437.9194-0.845781095911467Clb=4.3m/s t=-55.2C h=10.5% p=-1.0hPa 403.403 MHz Type=M10 ser=106-2-13619 Radiosonde
ASTRA1ME1622E232022-12-06 11:54:2437.9199-0.8477691056111413ID=Igate AEMET sonda 106-2-13619 Clb=4.1m/s t=-55.1C h=10.7% p=-1.0hPa 403.400 MHz Type=M10 Batt V=5.5V
AZOFA2-1ME1622E232022-12-06 11:53:4337.9208-0.850961095911334Clb=4.8m/s t=-55.8C h=11.0% p=-1.0hPa 403.402 MHz Type=M10 ser=106-2-13619 Radiosonde
EB5AQ-11ME1622E232022-12-06 11:53:4037.9208-0.851131095911330Clb=4.0m/s t=-55.7C h=11.0% p=-1.0hPa 403.403 MHz Type=M10 ser=106-2-13619 Radiosonde
ASTRA1ME1622E232022-12-06 11:53:0637.9215-0.8532491216311278ID=Igate AEMET sonda 106-2-13619 Clb=4.0m/s t=-55.4C h=10.9% p=-1.0hPa 403.401 MHz Type=M10 Batt V=5.5V
AZOFA2-1ME1622E232022-12-06 11:52:2337.9226-0.8564711186711199Clb=5.0m/s t=-55.1C h=10.5% p=-1.0hPa 403.405 MHz Type=M10 ser=106-2-13619 Radiosonde
EB5AQ-11ME1622E232022-12-06 11:52:2037.9228-0.856831246911189Clb=4.9m/s t=-55.0C h=10.4% p=-1.0hPa 403.403 MHz Type=M10 ser=106-2-13619 Radiosonde
ASTRA1ME1622E232022-12-06 11:51:5537.9237-0.858781226711143ID=Igate AEMET sonda 106-2-13619 Clb=4.0m/s t=-55.1C h=10.1% p=-1.0hPa 403.401 MHz Type=M10 Batt V=5.5V
AZOFA2-1ME1622E232022-12-06 11:51:4537.9253-0.8618411197011065Clb=4.9m/s t=-55.0C h=9.7% p=-1.0hPa 403.404 MHz Type=M10 ser=106-2-13619 Radiosonde
ASTRA1ME1622E232022-12-06 11:51:3437.9266-0.8641391247811005ID=Igate AEMET sonda 106-2-13619 Clb=4.9m/s t=-54.5C h=9.5% p=-1.0hPa 403.400 MHz Type=M10 Batt V=5.6V
AZOFA2-1ME1622E232022-12-06 11:51:0637.9284-0.8675291327410928Clb=4.3m/s t=-54.0C h=78.9% p=-1.0hPa 403.401 MHz Type=M10 ser=106-2-13619 Radiosonde
ASTRA1ME1622E232022-12-06 11:50:5337.9298-0.870021298010873ID=Igate AEMET sonda 106-2-13619 Clb=4.0m/s t=-53.6C h=10.2% p=-1.0hPa 403.401 MHz Type=M10 Batt V=5.6V
AZOFA2-1ME1622E232022-12-06 11:50:4737.9316-0.87371267210803Clb=3.5m/s t=-53.5C h=10.6% p=-1.0hPa 403.402 MHz Type=M10 ser=106-2-13619 Radiosonde
EB5AQ-11ME1622E232022-12-06 11:50:4637.9317-0.8738791287410799Clb=4.3m/s t=-53.5C h=10.6% p=-1.0hPa 403.403 MHz Type=M10 ser=106-2-13619 Radiosonde
ASTRA1ME1622E232022-12-06 11:50:3137.933-0.8763211278110753ID=Igate AEMET sonda 106-2-13619 Clb=4.3m/s t=-53.7C h=10.9% p=-1.0hPa 403.401 MHz Type=M10 Batt V=5.6V
AZOFA2-1ME1622E232022-12-06 11:50:0937.935-0.880281258710682Clb=4.0m/s t=-53.6C h=10.8% p=-1.0hPa 403.405 MHz Type=M10 ser=106-2-13619 Radiosonde
ASTRA1ME1622E232022-12-06 11:50:0037.9366-0.8831791238510628ID=Igate AEMET sonda 106-2-13619 Clb=3.8m/s t=-53.3C h=10.5% p=-1.0hPa 403.401 MHz Type=M10 Batt V=5.6V
AZOFA2-1ME1622E232022-12-06 11:49:5737.9386-0.887461269410555Clb=4.2m/s t=-52.9C h=10.4% p=-1.0hPa 403.404 MHz Type=M10 ser=106-2-13619 Radiosonde
ASTRA1ME1622E232022-12-06 11:49:5337.9401-0.890721219110504ID=Igate AEMET sonda 106-2-13619 Clb=3.6m/s t=-52.6C h=10.6% p=-1.0hPa 403.401 MHz Type=M10 Batt V=5.6V
AZOFA2-1ME1622E232022-12-06 11:49:4737.9419-0.8953991149610431Clb=4.1m/s t=-52.1C h=10.4% p=-1.0hPa 403.402 MHz Type=M10 ser=106-2-13619 Radiosonde
ASTRA1ME1622E232022-12-06 11:49:4337.9433-0.898891159410377ID=Igate AEMET sonda 106-2-13619 Clb=4.3m/s t=-51.9C h=10.1% p=-1.0hPa 403.401 MHz Type=M10 Batt V=5.6V
AZOFA2-1ME1622E232022-12-06 11:49:2337.9452-0.9037891129410301Clb=3.6m/s t=-51.5C h=9.1% p=-1.0hPa 403.402 MHz Type=M10 ser=106-2-13619 Radiosonde
EB5AQ-11ME1622E232022-12-06 11:49:2237.9453-0.9040811119810297Clb=4.8m/s t=-51.5C h=9.1% p=-1.0hPa 403.403 MHz Type=M10 ser=106-2-13619 Radiosonde
ASTRA1ME1622E232022-12-06 11:49:0637.9466-0.9074810810410242ID=Igate AEMET sonda 106-2-13619 Clb=5.1m/s t=-51.1C h=9.1% p=-1.0hPa 403.401 MHz Type=M10 Batt V=5.6V
AZOFA2-1ME1622E232022-12-06 11:48:5737.9487-0.9128111610410164Clb=4.1m/s t=-50.5C h=10.5% p=-1.0hPa 403.404 MHz Type=M10 ser=106-2-13619 Radiosonde
ASTRA1ME1622E232022-12-06 11:48:5137.9501-0.9168711110210104ID=Igate AEMET sonda 106-2-13619 Clb=4.0m/s t=-50.3C h=11.8% p=-1.0hPa 403.401 MHz Type=M10 Batt V=5.6V
AZOFA2-1ME1622E232022-12-06 11:48:4937.952-0.9224611510710020Clb=5.1m/s t=-49.7C h=13.2% p=-1.0hPa 403.404 MHz Type=M10 ser=106-2-13619 Radiosonde
AZOFA2-1ME1622E232022-12-06 11:48:4737.9551-0.93167116969877Clb=4.2m/s t=-48.6C h=13.7% p=-1.0hPa 403.405 MHz Type=M10 ser=106-2-13619 Radiosonde
ASTRA1ME1622E232022-12-06 11:48:4537.9565-0.9358791111069814ID=Igate AEMET sonda 106-2-13619 Clb=6.8m/s t=-48.2C h=13.7% p=-1.0hPa 403.401 MHz Type=M10 Batt V=5.6V
AZOFA2-1ME1622E232022-12-06 11:48:4437.9582-0.9413611121069723Clb=5.0m/s t=-47.2C h=13.0% p=-1.0hPa 403.405 MHz Type=M10 ser=106-2-13619 Radiosonde
ASTRA1ME1622E232022-12-06 11:48:4337.9594-0.945351151049659ID=Igate AEMET sonda 106-2-13619 Clb=5.7m/s t=-46.6C h=12.5% p=-1.0hPa 403.401 MHz Type=M10 Batt V=5.6V
AZOFA2-1ME1622E232022-12-06 11:48:4237.9608-0.95072109949563Clb=5.5m/s t=-45.7C h=11.3% p=-1.0hPa 403.402 MHz Type=M10 ser=106-2-13619 Radiosonde
ASTRA1ME1622E232022-12-06 11:48:4137.9619-0.954631021049492ID=Igate AEMET sonda 106-2-13619 Clb=6.4m/s t=-45.1C h=10.1% p=-1.0hPa 403.401 MHz Type=M10 Batt V=5.6V
AZOFA2-1ME1622E232022-12-06 11:48:4037.9633-0.96013114949384Clb=4.0m/s t=-44.4C h=7.7% p=-1.0hPa 403.404 MHz Type=M10 ser=106-2-13619 Radiosonde
ASTRA1ME1622E232022-12-06 11:48:3937.9645-0.96383111949329ID=Igate AEMET sonda 106-2-13619 Clb=4.6m/s t=-44.0C h=6.9% p=-1.0hPa 403.400 MHz Type=M10 Batt V=5.6V
AZOFA2-1ME1622E232022-12-06 11:48:3837.9662-0.968899113919251Clb=4.6m/s t=-43.7C h=7.9% p=-1.0hPa 403.402 MHz Type=M10 ser=106-2-13619 Radiosonde
ASTRA1ME1622E232022-12-06 11:48:3637.9674-0.972529112969196ID=Igate AEMET sonda 106-2-13619 Clb=4.2m/s t=-43.3C h=7.6% p=-1.0hPa 403.400 MHz Type=M10 Batt V=5.6V
AZOFA2-1ME1622E232022-12-06 11:48:3237.9693-0.977861116969116Clb=3.9m/s t=-42.9C h=6.9% p=-1.0hPa 403.402 MHz Type=M10 ser=106-2-13619 Radiosonde
EB5AQ-11ME1622E232022-12-06 11:48:3137.9693-0.977861116969116Clb=3.9m/s t=-42.9C h=6.9% p=-1.0hPa 403.403 MHz Type=M10 ser=106-2-13619 Radiosonde
ASTRA1ME1622E232022-12-06 11:48:1337.9707-0.98157120969058ID=Igate AEMET sonda 106-2-13619 Clb=4.3m/s t=-42.6C h=7.0% p=-1.0hPa 403.401 MHz Type=M10 Batt V=5.6V
AZOFA2-1ME1622E232022-12-06 11:47:3337.9724-0.9868611121028975Clb=5.1m/s t=-42.0C h=7.9% p=-1.0hPa 403.402 MHz Type=M10 ser=106-2-13619 Radiosonde
EB5AQ-11ME1622E232022-12-06 11:47:3237.9724-0.9868611121028975Clb=5.1m/s t=-42.0C h=7.9% p=-1.0hPa 403.403 MHz Type=M10 ser=106-2-13619 Radiosonde
ASTRA1ME1622E232022-12-06 11:47:0537.9737-0.99074117988914ID=Igate AEMET sonda 106-2-13619 Clb=4.4m/s t=-41.7C h=8.9% p=-1.0hPa 403.401 MHz Type=M10 Batt V=5.6V
AZOFA2-1ME1622E232022-12-06 11:46:3137.9753-0.99604107988828Clb=5.1m/s t=-41.1C h=10.1% p=-1.0hPa 403.405 MHz Type=M10 ser=106-2-13619 Radiosonde
EB5AQ-11ME1622E232022-12-06 11:46:3037.9754-0.996341108988824Clb=4.0m/s t=-41.1C h=10.1% p=-1.0hPa 403.403 MHz Type=M10 ser=106-2-13619 Radiosonde
ASTRA1ME1622E232022-12-06 11:46:0637.9763-1.00001104988766ID=Igate AEMET sonda 106-2-13619 Clb=5.1m/s t=-41.0C h=10.8% p=-1.0hPa 403.401 MHz Type=M10 Batt V=5.6V
AZOFA2-1ME1622E232022-12-06 11:45:3037.9773-1.0052498948680Clb=5.7m/s t=-40.6C h=11.1% p=-1.0hPa 403.404 MHz Type=M10 ser=106-2-13619 Radiosonde
EB5AQ-11ME1622E232022-12-06 11:45:2937.9774-1.00554951008675Clb=5.0m/s t=-40.6C h=11.1% p=-1.0hPa 403.403 MHz Type=M10 ser=106-2-13619 Radiosonde
ASTRA1ME1622E232022-12-06 11:45:0537.9778-1.0090698948612ID=Igate AEMET sonda 106-2-13619 Clb=5.5m/s t=-40.1C h=11.1% p=-1.0hPa 403.401 MHz Type=M10 Batt V=5.6V
AZOFA2-1ME1622E232022-12-06 11:44:2937.9785-1.0141794838513Clb=5.5m/s t=-39.3C h=11.1% p=-1.0hPa 403.404 MHz Type=M10 ser=106-2-13619 Radiosonde
EB5AQ-11ME1622E232022-12-06 11:44:2737.9785-1.014793838503Clb=6.0m/s t=-39.3C h=11.0% p=-1.0hPa 403.403 MHz Type=M10 ser=106-2-13619 Radiosonde
ASTRA1ME1622E232022-12-06 11:44:0337.9789-1.01758101968440ID=Igate AEMET sonda 106-2-13619 Clb=4.9m/s t=-38.7C h=11.0% p=-1.0hPa 403.401 MHz Type=M10 Batt V=5.6V
AZOFA2-1ME1622E232022-12-06 11:43:2837.9796-1.022117708350Clb=5.5m/s t=-37.9C h=10.5% p=-1.0hPa 403.405 MHz Type=M10 ser=106-2-13619 Radiosonde
EB5AQ-11ME1622E232022-12-06 11:43:2637.9797-1.02221113788344Clb=6.2m/s t=-37.9C h=10.5% p=-1.0hPa 403.403 MHz Type=M10 ser=106-2-13619 Radiosonde
ASTRA1ME1622E232022-12-06 11:43:0337.9802-1.02512107788268ID=Igate AEMET sonda 106-2-13619 Clb=9.2m/s t=-37.4C h=10.7% p=-1.0hPa 403.401 MHz Type=M10 Batt V=5.6V
AZOFA2-1ME1622E232022-12-06 11:42:2237.9815-1.02916116698175Clb=3.5m/s t=-36.9C h=11.9% p=-1.0hPa 403.404 MHz Type=M10 ser=106-2-13619 Radiosonde
EB5AQ-11ME1622E232022-12-06 11:42:2037.9815-1.02937114748171Clb=4.8m/s t=-36.9C h=12.0% p=-1.0hPa 403.403 MHz Type=M10 ser=106-2-13619 Radiosonde
ASTRA1ME1622E232022-12-06 11:41:5637.9823-1.03194106818119ID=Igate AEMET sonda 106-2-13619 Clb=4.8m/s t=-36.6C h=12.6% p=-1.0hPa 403.401 MHz Type=M10 Batt V=5.6V
AZOFA2-1ME1622E232022-12-06 11:41:2237.9832-1.03598109728028Clb=5.0m/s t=-35.8C h=12.9% p=-1.0hPa 403.402 MHz Type=M10 ser=106-2-13619 Radiosonde
EB5AQ-11ME1622E232022-12-06 11:41:2137.9832-1.03619109678024Clb=4.7m/s t=-35.8C h=12.9% p=-1.0hPa 403.403 MHz Type=M10 ser=106-2-13619 Radiosonde
ASTRA1ME1622E232022-12-06 11:40:5637.9837-1.03871106637971ID=Igate AEMET sonda 106-2-13619 Clb=5.2m/s t=-35.3C h=12.6% p=-1.0hPa 403.401 MHz Type=M10 Batt V=5.6V
AZOFA2-1ME1622E232022-12-06 11:40:2437.9844-1.0425298707896Clb=4.5m/s t=-34.6C h=12.4% p=-1.0hPa 403.404 MHz Type=M10 ser=106-2-13619 Radiosonde
EB5AQ-11ME1622E232022-12-06 11:40:2337.9844-1.04274101727892Clb=4.4m/s t=-34.6C h=12.4% p=-1.0hPa 403.403 MHz Type=M10 ser=106-2-13619 Radiosonde
ASTRA1ME1622E232022-12-06 11:40:0137.9849-1.04532103657843ID=Igate AEMET sonda 106-2-13619 Clb=4.4m/s t=-34.1C h=12.5% p=-1.0hPa 403.401 MHz Type=M10 Batt V=5.6V
AZOFA2-1ME1622E232022-12-06 11:39:4337.9855-1.04903104677767Clb=4.1m/s t=-33.4C h=12.7% p=-1.0hPa 403.404 MHz Type=M10 ser=106-2-13619 Radiosonde
EB5AQ-11ME1622E232022-12-06 11:39:4237.9856-1.04924102697762Clb=4.3m/s t=-33.4C h=12.8% p=-1.0hPa 403.403 MHz Type=M10 ser=106-2-13619 Radiosonde
ASTRA1ME1622E232022-12-06 11:39:3237.9861-1.05172101677713ID=Igate AEMET sonda 106-2-13619 Clb=3.4m/s t=-33.0C h=13.0% p=-1.0hPa 403.401 MHz Type=M10 Batt V=5.6V
AZOFA2-1ME1622E232022-12-06 11:39:1237.9869-1.05538112597636Clb=4.8m/s t=-32.4C h=12.9% p=-1.0hPa 403.404 MHz Type=M10 ser=106-2-13619 Radiosonde
ASTRA1ME1622E232022-12-06 11:38:5937.9876-1.05789115597584ID=Igate AEMET sonda 106-2-13619 Clb=2.8m/s t=-31.9C h=12.7% p=-1.0hPa 403.401 MHz Type=M10 Batt V=5.6V
AZOFA2-1ME1622E232022-12-06 11:38:4137.9887-1.0615116637497Clb=3.6m/s t=-31.4C h=14.1% p=-1.0hPa 403.403 MHz Type=M10 ser=106-2-13619 Radiosonde
ASTRA1ME1622E232022-12-06 11:38:2837.9895-1.06383113637439ID=Igate AEMET sonda 106-2-13619 Clb=4.5m/s t=-31.0C h=15.0% p=-1.0hPa 403.400 MHz Type=M10 Batt V=5.6V
AZOFA2-1ME1622E232022-12-06 11:38:1037.9908-1.06716105577359Clb=4.2m/s t=-30.4C h=15.6% p=-1.0hPa 403.404 MHz Type=M10 ser=106-2-13619 Radiosonde
EB5AQ-11ME1622E232022-12-06 11:38:0937.9908-1.06734105577355Clb=5.0m/s t=-30.3C h=15.8% p=-1.0hPa 403.403 MHz Type=M10 ser=106-2-13619 Radiosonde
ASTRA1ME1622E232022-12-06 11:37:5737.9916-1.0697113707298ID=Igate AEMET sonda 106-2-13619 Clb=4.6m/s t=-29.9C h=16.3% p=-1.0hPa 403.401 MHz Type=M10 Batt V=5.6V
AZOFA2-1ME1622E232022-12-06 11:37:4137.9929-1.07293116597221Clb=5.5m/s t=-29.2C h=15.7% p=-1.0hPa 403.404 MHz Type=M10 ser=106-2-13619 Radiosonde
ASTRA1ME1622E232022-12-06 11:37:2837.9937-1.07559112567147ID=Igate AEMET sonda 106-2-13619 Clb=4.8m/s t=-28.6C h=15.6% p=-1.0hPa 403.400 MHz Type=M10 Batt V=5.6V
AZOFA2-1ME1622E232022-12-06 11:37:0737.9946-1.07864106677072Clb=3.2m/s t=-28.0C h=16.3% p=-1.0hPa 403.404 MHz Type=M10 ser=106-2-13619 Radiosonde
ASTRA1ME1622E232022-12-06 11:36:5437.9953-1.0812111597010ID=Igate AEMET sonda 106-2-13619 Clb=3.9m/s t=-27.7C h=17.2% p=-1.0hPa 403.400 MHz Type=M10 Batt V=5.6V
AZOFA2-1ME1622E232022-12-06 11:36:3637.9961-1.08436118526940Clb=3.7m/s t=-27.0C h=17.1% p=-1.0hPa 403.404 MHz Type=M10 ser=106-2-13619 Radiosonde
ASTRA1ME1622E232022-12-06 11:36:2937.9968-1.08658107526886ID=Igate AEMET sonda 106-2-13619 Clb=4.0m/s t=-26.5C h=18.0% p=-1.0hPa 403.399 MHz Type=M10 Batt V=5.6V
AZOFA2-1ME1622E232022-12-06 11:36:2837.9977-1.08959110526813Clb=4.2m/s t=-26.1C h=19.1% p=-1.0hPa 403.403 MHz Type=M10 ser=106-2-13619 Radiosonde
ASTRA1ME1622E232022-12-06 11:36:2737.9983-1.09169111526763ID=Igate AEMET sonda 106-2-13619 Clb=3.3m/s t=-25.7C h=20.8% p=-1.0hPa 403.399 MHz Type=M10 Batt V=5.6V
AZOFA2-1ME1622E232022-12-06 11:36:2637.9993-1.09459112486691Clb=3.6m/s t=-25.0C h=20.3% p=-1.0hPa 403.404 MHz Type=M10 ser=106-2-13619 Radiosonde
ASTRA1ME1622E232022-12-06 11:36:2538-1.09661116506638ID=Igate AEMET sonda 106-2-13619 Clb=4.3m/s t=-24.6C h=19.6% p=-1.0hPa 403.399 MHz Type=M10 Batt V=5.6V
AZOFA2-1ME1622E232022-12-06 11:36:2438.0009-1.09954116506560Clb=5.6m/s t=-23.9C h=21.4% p=-1.0hPa 403.403 MHz Type=M10 ser=106-2-13619 Radiosonde
ASTRA1ME1622E232022-12-06 11:36:2238.0016-1.10144123336503ID=Igate AEMET sonda 106-2-13619 Clb=3.6m/s t=-23.6C h=26.4% p=-1.0hPa 403.399 MHz Type=M10 Batt V=5.6V
AZOFA2-1ME1622E232022-12-06 11:36:1738.0024-1.10411121596395Clb=7.1m/s t=-22.8C h=35.1% p=-1.0hPa 403.404 MHz Type=M10 ser=106-2-13619 Radiosonde
ASTRA1ME1622E232022-12-06 11:36:0938.0029-1.1062199566319ID=Igate AEMET sonda 106-2-13619 Clb=6.7m/s t=-22.1C h=35.3% p=-1.0hPa 403.399 MHz Type=M10 Batt V=5.6V
AZOFA2-1ME1622E232022-12-06 11:35:4338.0037-1.10911102636211Clb=5.3m/s t=-21.4C h=38.5% p=-1.0hPa 403.404 MHz Type=M10 ser=106-2-13619 Radiosonde
EB5AQ-11ME1622E232022-12-06 11:35:4138.0037-1.10911102636211Clb=5.3m/s t=-21.4C h=38.5% p=-1.0hPa 403.403 MHz Type=M10 ser=106-2-13619 Radiosonde
ASTRA1ME1622E232022-12-06 11:35:1938.0042-1.11113100546149ID=Igate AEMET sonda 106-2-13619 Clb=5.5m/s t=-20.8C h=37.5% p=-1.0hPa 403.399 MHz Type=M10 Batt V=5.6V
AZOFA2-1ME1622E232022-12-06 11:34:4838.0048-1.11371105466069Clb=3.9m/s t=-20.3C h=40.4% p=-1.0hPa 403.403 MHz Type=M10 ser=106-2-13619 Radiosonde
EB5AQ-11ME1622E232022-12-06 11:34:4638.0048-1.11371105466069Clb=3.9m/s t=-20.3C h=40.4% p=-1.0hPa 403.403 MHz Type=M10 ser=106-2-13619 Radiosonde
ASTRA1ME1622E232022-12-06 11:34:2338.0055-1.1159113486002ID=Igate AEMET sonda 106-2-13619 Clb=4.6m/s t=-19.7C h=40.7% p=-1.0hPa 403.400 MHz Type=M10 Batt V=5.7V
AZOFA2-1ME1622E232022-12-06 11:33:4838.0061-1.11795113505939Clb=4.7m/s t=-19.2C h=40.6% p=-1.0hPa 403.404 MHz Type=M10 ser=106-2-13619 Radiosonde
EB5AQ-11ME1622E232022-12-06 11:33:4738.0061-1.11809106465935Clb=3.9m/s t=-19.1C h=40.6% p=-1.0hPa 403.402 MHz Type=M10 ser=106-2-13619 Radiosonde
ASTRA1ME1622E232022-12-06 11:33:2438.0065-1.1197112435869ID=Igate AEMET sonda 106-2-13619 Clb=3.8m/s t=-18.7C h=42.8% p=-1.0hPa 403.400 MHz Type=M10 Batt V=5.7V
AZOFA2-1ME1622E232022-12-06 11:32:5138.0069-1.12194100435788Clb=4.5m/s t=-18.4C h=46.1% p=-1.0hPa 403.403 MHz Type=M10 ser=106-2-13619 Radiosonde
EB5AQ-11ME1622E232022-12-06 11:32:5038.0069-1.12208101435783Clb=4.8m/s t=-18.3C h=46.1% p=-1.0hPa 403.403 MHz Type=M10 ser=106-2-13619 Radiosonde
ASTRA1ME1622E232022-12-06 11:32:2438.0071-1.1235897465725ID=Igate AEMET sonda 106-2-13619 Clb=4.7m/s t=-17.9C h=45.6% p=-1.0hPa 403.399 MHz Type=M10 Batt V=5.7V
AZOFA2-1ME1622E232022-12-06 11:31:5838.0073-1.1257497465646Clb=4.2m/s t=-17.0C h=45.4% p=-1.0hPa 403.404 MHz Type=M10 ser=106-2-13619 Radiosonde
EB5AQ-11ME1622E232022-12-06 11:31:5638.0073-1.12589100435642Clb=3.9m/s t=-16.9C h=45.4% p=-1.0hPa 403.402 MHz Type=M10 ser=106-2-13619 Radiosonde
ASTRA1ME1622E232022-12-06 11:31:4338.0074-1.1278987335559ID=Igate AEMET sonda 106-2-13619 Clb=6.1m/s t=-16.5C h=48.2% p=-1.0hPa 403.399 MHz Type=M10 Batt V=5.7V
AZOFA2-1ME1622E232022-12-06 11:31:2638.0074-1.1292186285498Clb=4.6m/s t=-16.1C h=50.0% p=-1.0hPa 403.404 MHz Type=M10 ser=106-2-13619 Radiosonde
EB5AQ-11ME1622E232022-12-06 11:31:2538.0074-1.1292186285498Clb=4.6m/s t=-16.1C h=50.0% p=-1.0hPa 403.402 MHz Type=M10 ser=106-2-13619 Radiosonde
ASTRA1ME1622E232022-12-06 11:31:1438.0073-1.1305760375438ID=Igate AEMET sonda 106-2-13619 Clb=5.6m/s t=-15.8C h=51.4% p=-1.0hPa 403.400 MHz Type=M10 Batt V=5.7V
AZOFA2-1ME1622E232022-12-06 11:31:1338.007-1.1324579395335Clb=5.7m/s t=-15.0C h=51.2% p=-1.0hPa 403.404 MHz Type=M10 ser=106-2-13619 Radiosonde
ASTRA1ME1622E232022-12-06 11:31:1238.0067-1.1343754315225ID=Igate AEMET sonda 106-2-13619 Clb=6.5m/s t=-14.0C h=48.1% p=-1.0hPa 403.399 MHz Type=M10 Batt V=5.7V
AZOFA2-1ME1622E232022-12-06 11:31:1138.0065-1.1358483285144Clb=6.8m/s t=-13.2C h=46.0% p=-1.0hPa 403.404 MHz Type=M10 ser=106-2-13619 Radiosonde
ASTRA1ME1622E232022-12-06 11:31:1038.0063-1.1373267285066ID=Igate AEMET sonda 106-2-13619 Clb=4.9m/s t=-12.6C h=45.6% p=-1.0hPa 403.400 MHz Type=M10 Batt V=5.7V
AZOFA2-1ME1622E232022-12-06 11:31:0138.0061-1.1392882334981Clb=4.1m/s t=-11.8C h=45.6% p=-1.0hPa 403.403 MHz Type=M10 ser=106-2-13619 Radiosonde
EB5AQ-11ME1622E232022-12-06 11:31:0038.006-1.139572394970Clb=4.9m/s t=-11.8C h=45.6% p=-1.0hPa 403.403 MHz Type=M10 ser=106-2-13619 Radiosonde
ASTRA1ME1622E232022-12-06 11:30:4138.0058-1.1408673444916ID=Igate AEMET sonda 106-2-13619 Clb=4.4m/s t=-11.4C h=45.7% p=-1.0hPa 403.399 MHz Type=M10 Batt V=5.7V
AZOFA2-1ME1622E232022-12-06 11:30:1538.0055-1.1424363284826Clb=4.6m/s t=-11.1C h=48.6% p=-1.0hPa 403.404 MHz Type=M10 ser=106-2-13619 Radiosonde
EB5AQ-11ME1622E232022-12-06 11:30:1338.0055-1.1425277334822Clb=5.8m/s t=-11.1C h=48.9% p=-1.0hPa 403.403 MHz Type=M10 ser=106-2-13619 Radiosonde
ASTRA1ME1622E232022-12-06 11:29:5138.0053-1.1438678284745ID=Igate AEMET sonda 106-2-13619 Clb=6.3m/s t=-10.7C h=53.3% p=-1.0hPa 403.399 MHz Type=M10 Batt V=5.7V
AZOFA2-1ME1622E232022-12-06 11:29:2538.0049-1.1453774204646Clb=6.9m/s t=-9.8C h=50.2% p=-1.0hPa 403.404 MHz Type=M10 ser=106-2-13619 Radiosonde
EB5AQ-11ME1622E232022-12-06 11:29:2338.0049-1.14543101204640Clb=6.2m/s t=-9.7C h=50.0% p=-1.0hPa 403.402 MHz Type=M10 ser=106-2-13619 Radiosonde
ASTRA1ME1622E232022-12-06 11:28:5838.0045-1.146766334559ID=Igate AEMET sonda 106-2-13619 Clb=5.8m/s t=-9.0C h=48.9% p=-1.0hPa 403.400 MHz Type=M10 Batt V=5.7V
AZOFA2-1ME1622E232022-12-06 11:28:3138.004-1.1477954244462Clb=5.0m/s t=-8.6C h=52.8% p=-1.0hPa 403.403 MHz Type=M10 ser=106-2-13619 Radiosonde
EB5AQ-11ME1622E232022-12-06 11:28:2938.004-1.1478555204457Clb=5.2m/s t=-8.6C h=52.9% p=-1.0hPa 403.403 MHz Type=M10 ser=106-2-13619 Radiosonde
ASTRA1ME1622E232022-12-06 11:28:0938.0038-1.14865127134385ID=Igate AEMET sonda 106-2-13619 Clb=6.7m/s t=-8.3C h=56.5% p=-1.0hPa 403.399 MHz Type=M10 Batt V=5.7V
AZOFA2-1ME1622E232022-12-06 11:27:4938.0036-1.1497384304291Clb=5.9m/s t=-8.1C h=59.8% p=-1.0hPa 403.404 MHz Type=M10 ser=106-2-13619 Radiosonde
EB5AQ-11ME1622E232022-12-06 11:27:4838.0036-1.1498298264285Clb=5.1m/s t=-8.0C h=59.8% p=-1.0hPa 403.402 MHz Type=M10 ser=106-2-13619 Radiosonde
AZOFA2-1ME1622E232022-12-06 11:27:1938.0037-1.15118113154147Clb=4.3m/s t=-7.5C h=65.0% p=-1.0hPa 403.404 MHz Type=M10 ser=106-2-13619 Radiosonde
EB5AQ-11ME1622E232022-12-06 11:27:1838.0037-1.15123132224143Clb=4.0m/s t=-7.5C h=65.0% p=-1.0hPa 403.402 MHz Type=M10 ser=106-2-13619 Radiosonde
AZOFA2-1ME1622E232022-12-06 11:26:4738.004-1.1527375193998Clb=3.0m/s t=-6.9C h=64.7% p=-1.0hPa 403.403 MHz Type=M10 ser=106-2-13619 Radiosonde
EB5AQ-11ME1622E232022-12-06 11:26:4638.004-1.1527876153994Clb=3.9m/s t=-6.9C h=64.6% p=-1.0hPa 403.402 MHz Type=M10 ser=106-2-13619 Radiosonde
AZOFA2-1ME1622E232022-12-06 11:26:1938.0037-1.1544781263850Clb=6.6m/s t=-5.8C h=65.8% p=-1.0hPa 403.404 MHz Type=M10 ser=106-2-13619 Radiosonde
AZOFA2-1ME1622E232022-12-06 11:26:1838.003-1.156313593708Clb=5.9m/s t=-5.4C h=69.1% p=-1.0hPa 403.404 MHz Type=M10 ser=106-2-13619 Radiosonde
AZOFA2-1ME1622E232022-12-06 11:25:5038.002-1.1586273373520Clb=5.5m/s t=-4.3C h=71.4% p=-1.0hPa 403.404 MHz Type=M10 ser=106-2-13619 Radiosonde
EB5AQ-11ME1622E232022-12-06 11:25:4938.002-1.1588985433512Clb=4.9m/s t=-4.3C h=71.4% p=-1.0hPa 403.402 MHz Type=M10 ser=106-2-13619 Radiosonde
AZOFA2-1ME1622E232022-12-06 11:25:0238.0005-1.161045093335Clb=6.8m/s t=-4.3C h=79.3% p=-1.0hPa 403.403 MHz Type=M10 ser=106-2-13619 Radiosonde
EB5AQ-11ME1622E232022-12-06 11:25:0138.0005-1.1610633153328Clb=6.7m/s t=-4.2C h=79.3% p=-1.0hPa 403.401 MHz Type=M10 ser=106-2-13619 Radiosonde
AZOFA2-1ME1622E232022-12-06 11:24:1537.9993-1.1623445193096Clb=6.3m/s t=-2.5C h=75.4% p=-1.0hPa 403.404 MHz Type=M10 ser=106-2-13619 Radiosonde
AZOFA2-1ME1622E232022-12-06 11:23:4037.9986-1.163438992909Clb=5.0m/s t=-1.7C h=76.9% p=-1.0hPa 403.403 MHz Type=M10 ser=106-2-13619 Radiosonde
EB5AQ-11ME1622E232022-12-06 11:23:1137.9987-1.16375972744Clb=5.2m/s t=-0.7C h=85.5% p=-1.0hPa 403.401 MHz Type=M10 ser=106-2-13619 Radiosonde
AZOFA2-1ME1622E232022-12-06 11:23:1037.9987-1.16375972744Clb=5.2m/s t=-0.7C h=85.5% p=-1.0hPa 403.403 MHz Type=M10 ser=106-2-13619 Radiosonde
AZOFA2-1ME1622E232022-12-06 11:22:3837.9986-1.1648921192601Clb=3.3m/s t=-0.2C h=85.6% p=-1.0hPa 403.404 MHz Type=M10 ser=106-2-13619 Radiosonde
AZOFA2-1ME1622E232022-12-06 11:22:0837.999-1.1661117242427Clb=5.2m/s t=1.0C h=81.1% p=-1.0hPa 403.402 MHz Type=M10 ser=106-2-13619 Radiosonde